地図

経路データ

SID SEASON NUMBER BASIN SUBBASIN NAME ISO_TIME NATURE LAT LON WMO_WIND WMO_PRES WMO_AGENCY TRACK_TYPE DIST2LAND LANDFALL IFLAG USA_AGENCY USA_ATCF_ID USA_LAT USA_LON USA_RECORD USA_STATUS USA_WIND USA_PRES USA_SSHS USA_R34_NE USA_R34_SE USA_R34_SW USA_R34_NW USA_R50_NE USA_R50_SE USA_R50_SW USA_R50_NW USA_R64_NE USA_R64_SE USA_R64_SW USA_R64_NW USA_POCI USA_ROCI USA_RMW USA_EYE TOKYO_LAT TOKYO_LON TOKYO_GRADE TOKYO_WIND TOKYO_PRES TOKYO_R50_DIR TOKYO_R50_LONG TOKYO_R50_SHORT TOKYO_R30_DIR TOKYO_R30_LONG TOKYO_R30_SHORT TOKYO_LAND CMA_LAT CMA_LON CMA_CAT CMA_WIND CMA_PRES HKO_LAT HKO_LON HKO_CAT HKO_WIND HKO_PRES NEWDELHI_LAT NEWDELHI_LON NEWDELHI_GRADE NEWDELHI_WIND NEWDELHI_PRES NEWDELHI_CI NEWDELHI_DP NEWDELHI_POCI REUNION_LAT REUNION_LON REUNION_TYPE REUNION_WIND REUNION_PRES REUNION_TNUM REUNION_CI REUNION_RMW REUNION_R34_NE REUNION_R34_SE REUNION_R34_SW REUNION_R34_NW REUNION_R50_NE REUNION_R50_SE REUNION_R50_SW REUNION_R50_NW REUNION_R64_NE REUNION_R64_SE REUNION_R64_SW REUNION_R64_NW BOM_LAT BOM_LON BOM_TYPE BOM_WIND BOM_PRES BOM_TNUM BOM_CI BOM_RMW BOM_R34_NE BOM_R34_SE BOM_R34_SW BOM_R34_NW BOM_R50_NE BOM_R50_SE BOM_R50_SW BOM_R50_NW BOM_R64_NE BOM_R64_SE BOM_R64_SW BOM_R64_NW BOM_ROCI BOM_POCI BOM_EYE BOM_POS_METHOD BOM_PRES_METHOD NADI_LAT NADI_LON NADI_CAT NADI_WIND NADI_PRES WELLINGTON_LAT WELLINGTON_LON WELLINGTON_WIND WELLINGTON_PRES DS824_LAT DS824_LON DS824_STAGE DS824_WIND DS824_PRES TD9636_LAT TD9636_LON TD9636_STAGE TD9636_WIND TD9636_PRES TD9635_LAT TD9635_LON TD9635_WIND TD9635_PRES TD9635_ROCI NEUMANN_LAT NEUMANN_LON NEUMANN_CLASS NEUMANN_WIND NEUMANN_PRES MLC_LAT MLC_LON MLC_CLASS MLC_WIND MLC_PRES USA_GUST BOM_GUST BOM_GUST_PER REUNION_GUST REUNION_GUST_PER USA_SEAHGT USA_SEARAD_NE USA_SEARAD_SE USA_SEARAD_SW USA_SEARAD_NW STORM_SPEED STORM_DIR
1954234N17130 1954 47 WP MM NOT_NAMED 1954-08-22 00:00:00 TS 16.5000 130.000 main 667 629 __O___________ -1 16.5000 130.000 0 1004 9 273
1954234N17130 1954 47 WP MM NOT_NAMED 1954-08-22 03:00:00 TS 16.5227 129.545 main 619 587 __P___________ -1 16.5227 129.545 0 1003 9 277
1954234N17130 1954 47 WP MM NOT_NAMED 1954-08-22 06:00:00 TS 16.6000 129.100 main 587 557 __O___________ -1 16.6000 129.100 0 1002 9 287
1954234N17130 1954 47 WP MM NOT_NAMED 1954-08-22 09:00:00 TS 16.7700 128.678 main 563 543 __P___________ -1 16.7700 128.678 0 1001 9 298
1954234N17130 1954 47 WP MM NOT_NAMED 1954-08-22 12:00:00 TS 17.0000 128.300 main 543 534 __O___________ -1 17.0000 128.300 0 1000 8 304
1954234N17130 1954 47 WP MM NOT_NAMED 1954-08-22 15:00:00 TS 17.2274 127.970 main 534 526 __P___________ -1 17.2274 127.970 0 1000 8 311
1954234N17130 1954 47 WP MM NOT_NAMED 1954-08-22 18:00:00 TS 17.5000 127.700 main 534 534 __O___________ -1 17.5000 127.700 1 23 1000 8 322
1954234N17130 1954 47 WP MM NOT_NAMED 1954-08-22 21:00:00 TS 17.8425 127.470 main 538 523 __P___________ -1 17.8425 127.470 1 23 1000 8 331
1954234N17130 1954 47 WP MM NOT_NAMED 1954-08-23 00:00:00 TS 18.2000 127.300 main 526 517 __O___________ -1 18.2000 127.300 1 23 1000 7 337
1954234N17130 1954 47 WP MM NOT_NAMED 1954-08-23 03:00:00 TS 18.5000 127.177 main 517 506 __P___________ -1 18.5000 127.177 1 23 1000 6 342
1954234N17130 1954 47 WP MM NOT_NAMED 1954-08-23 06:00:00 TS 18.8000 127.100 main 507 507 __O___________ -1 18.8000 127.100 1 23 1000 7 350
1954234N17130 1954 47 WP MM NOT_NAMED 1954-08-23 09:00:00 TS 19.1500 127.057 main 511 502 __P___________ -1 19.1500 127.057 1 23 1000 7 352
1954234N17130 1954 47 WP MM NOT_NAMED 1954-08-23 12:00:00 TS 19.5000 127.000 main 509 504 __O___________ -1 19.5000 127.000 1 23 1000 7 347
1954234N17130 1954 47 WP MM NOT_NAMED 1954-08-23 15:00:00 TS 19.8374 126.895 main 508 499 __P___________ -1 19.8374 126.895 1 23 1000 7 335
1954234N17130 1954 47 WP MM NOT_NAMED 1954-08-23 18:00:00 TS 20.1000 126.700 main 499 475 __O___________ -1 20.1000 126.700 1 23 1000 6 305
1954234N17130 1954 47 WP MM NOT_NAMED 1954-08-23 21:00:00 TS 20.1851 126.372 main 475 442 __P___________ -1 20.1851 126.372 1 26 1000 7 287
1954234N17130 1954 47 WP MM NOT_NAMED 1954-08-24 00:00:00 TS 20.3000 126.000 main 442 426 __O___________ -1 20.3000 126.000 1 29 1000 8 304
1954234N17130 1954 47 WP MM NOT_NAMED 1954-08-24 03:00:00 TS 20.6401 125.648 main 424 424 __P___________ -1 20.6401 125.648 1 29 1000 10 325
1954234N17130 1954 47 WP MM NOT_NAMED 1954-08-24 06:00:00 TS 21.1000 125.400 main 443 439 __O___________ -1 21.1000 125.400 1 29 1000 10 341
1954234N17130 1954 47 WP MM NOT_NAMED 1954-08-24 09:00:00 TS 21.5623 125.310 main 434 422 __P___________ -1 21.5623 125.310 1 29 1001 10 1
1954234N17130 1954 47 WP MM NOT_NAMED 1954-08-24 12:00:00 TS 22.1000 125.400 main 425 422 __O___________ -1 22.1000 125.400 1 29 1002 12 16
1954234N17130 1954 47 WP MM NOT_NAMED 1954-08-24 15:00:00 TS 22.6677 125.662 main 436 427 __P___________ -1 22.6677 125.662 1 29 1002 14 23
1954234N17130 1954 47 WP MM NOT_NAMED 1954-08-24 18:00:00 TS 23.4000 126.000 main 434 430 __O___________ -1 23.4000 126.000 1 29 1002 18 18
1954234N17130 1954 47 WP MM NOT_NAMED 1954-08-24 21:00:00 TS 24.3774 126.274 main 439 434 __P___________ -1 24.3774 126.274 1 26 1005 22 12
1954234N17130 1954 47 WP MM NOT_NAMED 1954-08-25 00:00:00 TS 25.5000 126.500 main 455 __O___________ -1 25.5000 126.500 1 23 1008 23 10

デジタル台風データ・検索

IBTrACS Databaseについて

本データベースは、米国NOAAが公開する1842年以降の世界の熱帯低気圧のベストトラックデータアーカイブInternational Best Track Archive for Climate Stewardship (IBTrACS)を、ウェブで閲覧しやすい形式に変換したものです。

最終更新日:2021-10-25